sensor_id;sensor_type;location;lat;lon;timestamp;P1;durP1;ratioP1;P2;durP2;ratioP2
79798;SDS011;69283;48.024;11.090;2023-04-16T00:02:12;4.83;;;2.63;;
79798;SDS011;69283;48.024;11.090;2023-04-16T00:04:38;4.38;;;3.45;;
79798;SDS011;69283;48.024;11.090;2023-04-16T00:07:03;7.20;;;2.73;;
79798;SDS011;69283;48.024;11.090;2023-04-16T00:09:29;5.63;;;3.35;;
79798;SDS011;69283;48.024;11.090;2023-04-16T00:11:54;5.60;;;3.35;;
79798;SDS011;69283;48.024;11.090;2023-04-16T00:14:20;4.50;;;2.88;;
79798;SDS011;69283;48.024;11.090;2023-04-16T00:16:45;4.60;;;2.70;;
79798;SDS011;69283;48.024;11.090;2023-04-16T00:19:11;5.00;;;2.95;;
79798;SDS011;69283;48.024;11.090;2023-04-16T00:21:36;4.60;;;2.95;;
79798;SDS011;69283;48.024;11.090;2023-04-16T00:24:01;5.22;;;3.15;;
79798;SDS011;69283;48.024;11.090;2023-04-16T00:26:27;5.03;;;3.28;;
79798;SDS011;69283;48.024;11.090;2023-04-16T00:28:52;5.10;;;3.03;;
79798;SDS011;69283;48.024;11.090;2023-04-16T00:31:17;4.93;;;2.50;;
79798;SDS011;69283;48.024;11.090;2023-04-16T00:33:50;3.90;;;2.85;;
79798;SDS011;69283;48.024;11.090;2023-04-16T00:36:16;4.83;;;2.70;;
79798;SDS011;69283;48.024;11.090;2023-04-16T00:38:41;4.13;;;2.67;;
79798;SDS011;69283;48.024;11.090;2023-04-16T00:41:06;3.90;;;3.07;;
79798;SDS011;69283;48.024;11.090;2023-04-16T00:43:31;4.80;;;2.80;;
79798;SDS011;69283;48.024;11.090;2023-04-16T00:45:57;3.50;;;1.98;;
79798;SDS011;69283;48.024;11.090;2023-04-16T00:48:22;4.82;;;2.60;;
79798;SDS011;69283;48.024;11.090;2023-04-16T00:50:51;3.78;;;2.35;;
79798;SDS011;69283;48.024;11.090;2023-04-16T00:53:19;4.03;;;2.45;;
79798;SDS011;69283;48.024;11.090;2023-04-16T00:55:44;3.67;;;2.17;;
79798;SDS011;69283;48.024;11.090;2023-04-16T00:58:10;3.88;;;2.30;;
79798;SDS011;69283;48.024;11.090;2023-04-16T01:00:35;3.00;;;2.03;;
79798;SDS011;69283;48.024;11.090;2023-04-16T01:03:00;4.00;;;1.90;;
79798;SDS011;69283;48.024;11.090;2023-04-16T01:05:26;3.05;;;2.25;;
79798;SDS011;69283;48.024;11.090;2023-04-16T01:07:51;3.30;;;1.80;;
79798;SDS011;69283;48.024;11.090;2023-04-16T01:10:16;3.53;;;2.13;;
79798;SDS011;69283;48.024;11.090;2023-04-16T01:12:42;4.40;;;2.47;;
79798;SDS011;69283;48.024;11.090;2023-04-16T01:15:07;3.67;;;2.40;;
79798;SDS011;69283;48.024;11.090;2023-04-16T01:17:32;3.70;;;2.25;;
79798;SDS011;69283;48.024;11.090;2023-04-16T01:19:58;3.57;;;2.27;;
79798;SDS011;69283;48.024;11.090;2023-04-16T01:22:24;3.05;;;1.73;;
79798;SDS011;69283;48.024;11.090;2023-04-16T01:24:49;3.40;;;2.30;;
79798;SDS011;69283;48.024;11.090;2023-04-16T01:27:14;3.67;;;2.25;;
79798;SDS011;69283;48.024;11.090;2023-04-16T01:29:40;3.05;;;1.95;;
79798;SDS011;69283;48.024;11.090;2023-04-16T01:32:05;3.20;;;2.03;;
79798;SDS011;69283;48.024;11.090;2023-04-16T01:34:31;3.53;;;1.88;;
79798;SDS011;69283;48.024;11.090;2023-04-16T01:36:56;3.10;;;1.83;;
79798;SDS011;69283;48.024;11.090;2023-04-16T01:39:21;3.23;;;2.00;;
79798;SDS011;69283;48.024;11.090;2023-04-16T01:41:47;2.50;;;1.70;;
79798;SDS011;69283;48.024;11.090;2023-04-16T01:44:12;2.93;;;1.90;;
79798;SDS011;69283;48.024;11.090;2023-04-16T01:46:37;2.88;;;1.83;;
79798;SDS011;69283;48.024;11.090;2023-04-16T01:49:03;2.70;;;1.80;;
79798;SDS011;69283;48.024;11.090;2023-04-16T01:51:29;3.90;;;2.28;;
79798;SDS011;69283;48.024;11.090;2023-04-16T01:53:56;2.45;;;1.52;;
79798;SDS011;69283;48.024;11.090;2023-04-16T01:56:22;3.30;;;2.17;;
79798;SDS011;69283;48.024;11.090;2023-04-16T01:58:47;3.22;;;2.45;;
79798;SDS011;69283;48.024;11.090;2023-04-16T02:01:12;3.22;;;1.73;;
79798;SDS011;69283;48.024;11.090;2023-04-16T02:03:38;2.88;;;2.00;;
79798;SDS011;69283;48.024;11.090;2023-04-16T02:06:03;3.00;;;2.10;;
79798;SDS011;69283;48.024;11.090;2023-04-16T02:08:29;2.63;;;1.90;;
79798;SDS011;69283;48.024;11.090;2023-04-16T02:10:54;5.85;;;2.10;;
79798;SDS011;69283;48.024;11.090;2023-04-16T02:13:20;3.15;;;1.90;;
79798;SDS011;69283;48.024;11.090;2023-04-16T02:15:46;3.08;;;2.38;;
79798;SDS011;69283;48.024;11.090;2023-04-16T02:18:12;3.33;;;2.20;;
79798;SDS011;69283;48.024;11.090;2023-04-16T02:20:41;2.90;;;2.30;;
79798;SDS011;69283;48.024;11.090;2023-04-16T02:23:07;3.45;;;2.28;;
79798;SDS011;69283;48.024;11.090;2023-04-16T02:25:43;3.13;;;2.05;;
79798;SDS011;69283;48.024;11.090;2023-04-16T02:28:11;2.90;;;2.05;;
79798;SDS011;69283;48.024;11.090;2023-04-16T02:30:37;3.10;;;2.35;;
79798;SDS011;69283;48.024;11.090;2023-04-16T02:33:03;3.47;;;1.80;;
79798;SDS011;69283;48.024;11.090;2023-04-16T02:35:31;3.47;;;1.73;;
79798;SDS011;69283;48.024;11.090;2023-04-16T02:37:57;3.17;;;2.05;;
79798;SDS011;69283;48.024;11.090;2023-04-16T02:40:23;3.03;;;1.90;;
79798;SDS011;69283;48.024;11.090;2023-04-16T02:42:48;3.45;;;2.13;;
79798;SDS011;69283;48.024;11.090;2023-04-16T02:45:13;4.13;;;2.53;;
79798;SDS011;69283;48.024;11.090;2023-04-16T02:47:39;3.42;;;2.30;;
79798;SDS011;69283;48.024;11.090;2023-04-16T02:50:04;4.15;;;2.58;;
79798;SDS011;69283;48.024;11.090;2023-04-16T02:52:30;3.75;;;2.17;;
79798;SDS011;69283;48.024;11.090;2023-04-16T02:54:56;4.53;;;2.60;;
79798;SDS011;69283;48.024;11.090;2023-04-16T02:57:22;3.10;;;2.00;;
79798;SDS011;69283;48.024;11.090;2023-04-16T02:59:47;4.50;;;1.73;;
79798;SDS011;69283;48.024;11.090;2023-04-16T03:02:12;4.50;;;2.63;;
79798;SDS011;69283;48.024;11.090;2023-04-16T03:04:38;3.33;;;2.33;;
79798;SDS011;69283;48.024;11.090;2023-04-16T03:07:03;2.65;;;1.90;;
79798;SDS011;69283;48.024;11.090;2023-04-16T03:09:28;3.00;;;2.13;;
79798;SDS011;69283;48.024;11.090;2023-04-16T03:11:53;3.07;;;2.07;;
79798;SDS011;69283;48.024;11.090;2023-04-16T03:14:19;3.55;;;2.25;;
79798;SDS011;69283;48.024;11.090;2023-04-16T03:16:44;3.95;;;2.47;;
79798;SDS011;69283;48.024;11.090;2023-04-16T03:19:10;2.78;;;1.90;;
79798;SDS011;69283;48.024;11.090;2023-04-16T03:21:35;3.40;;;1.93;;
79798;SDS011;69283;48.024;11.090;2023-04-16T03:24:00;4.17;;;1.67;;
79798;SDS011;69283;48.024;11.090;2023-04-16T03:26:26;3.22;;;1.60;;
79798;SDS011;69283;48.024;11.090;2023-04-16T03:28:51;2.75;;;1.77;;
79798;SDS011;69283;48.024;11.090;2023-04-16T03:31:16;4.70;;;2.60;;
79798;SDS011;69283;48.024;11.090;2023-04-16T03:33:42;2.42;;;1.55;;
79798;SDS011;69283;48.024;11.090;2023-04-16T03:36:07;3.40;;;1.87;;
79798;SDS011;69283;48.024;11.090;2023-04-16T03:38:32;3.25;;;1.83;;
79798;SDS011;69283;48.024;11.090;2023-04-16T03:40:58;2.87;;;1.57;;
79798;SDS011;69283;48.024;11.090;2023-04-16T03:43:23;2.57;;;1.87;;
79798;SDS011;69283;48.024;11.090;2023-04-16T03:45:48;1.73;;;1.10;;
79798;SDS011;69283;48.024;11.090;2023-04-16T03:48:14;2.70;;;2.17;;
79798;SDS011;69283;48.024;11.090;2023-04-16T03:50:39;2.50;;;1.38;;
79798;SDS011;69283;48.024;11.090;2023-04-16T03:53:09;2.17;;;1.52;;
79798;SDS011;69283;48.024;11.090;2023-04-16T03:55:34;2.60;;;1.60;;
79798;SDS011;69283;48.024;11.090;2023-04-16T03:58:00;2.58;;;2.10;;
79798;SDS011;69283;48.024;11.090;2023-04-16T04:00:27;2.78;;;1.88;;
79798;SDS011;69283;48.024;11.090;2023-04-16T04:02:52;2.85;;;1.75;;
79798;SDS011;69283;48.024;11.090;2023-04-16T04:05:18;2.73;;;1.60;;
79798;SDS011;69283;48.024;11.090;2023-04-16T04:07:43;2.57;;;1.30;;
79798;SDS011;69283;48.024;11.090;2023-04-16T04:10:08;2.50;;;1.50;;
79798;SDS011;69283;48.024;11.090;2023-04-16T04:12:34;1.50;;;0.98;;
79798;SDS011;69283;48.024;11.090;2023-04-16T04:14:59;2.10;;;1.30;;
79798;SDS011;69283;48.024;11.090;2023-04-16T04:17:24;2.20;;;1.27;;
79798;SDS011;69283;48.024;11.090;2023-04-16T04:19:50;2.07;;;1.60;;
79798;SDS011;69283;48.024;11.090;2023-04-16T04:22:17;1.80;;;1.17;;
79798;SDS011;69283;48.024;11.090;2023-04-16T04:24:43;1.48;;;1.00;;
79798;SDS011;69283;48.024;11.090;2023-04-16T04:27:08;1.70;;;1.33;;
79798;SDS011;69283;48.024;11.090;2023-04-16T04:29:33;2.17;;;1.47;;
79798;SDS011;69283;48.024;11.090;2023-04-16T04:31:58;1.87;;;1.00;;
79798;SDS011;69283;48.024;11.090;2023-04-16T04:34:24;1.77;;;1.10;;
79798;SDS011;69283;48.024;11.090;2023-04-16T04:36:49;1.75;;;1.10;;
79798;SDS011;69283;48.024;11.090;2023-04-16T04:39:15;1.58;;;1.13;;
79798;SDS011;69283;48.024;11.090;2023-04-16T04:41:40;1.67;;;0.95;;
79798;SDS011;69283;48.024;11.090;2023-04-16T04:44:05;1.40;;;0.90;;
79798;SDS011;69283;48.024;11.090;2023-04-16T04:46:30;1.93;;;0.90;;
79798;SDS011;69283;48.024;11.090;2023-04-16T04:48:56;1.38;;;0.80;;
79798;SDS011;69283;48.024;11.090;2023-04-16T04:51:21;1.17;;;0.97;;
79798;SDS011;69283;48.024;11.090;2023-04-16T04:53:46;1.35;;;0.90;;
79798;SDS011;69283;48.024;11.090;2023-04-16T04:56:12;1.00;;;0.70;;
79798;SDS011;69283;48.024;11.090;2023-04-16T04:58:37;1.10;;;0.70;;
79798;SDS011;69283;48.024;11.090;2023-04-16T05:01:02;1.70;;;0.83;;
79798;SDS011;69283;48.024;11.090;2023-04-16T05:03:27;1.00;;;0.70;;
79798;SDS011;69283;48.024;11.090;2023-04-16T05:05:53;0.73;;;0.63;;
79798;SDS011;69283;48.024;11.090;2023-04-16T05:08:18;0.98;;;0.57;;
79798;SDS011;69283;48.024;11.090;2023-04-16T05:10:43;0.65;;;0.52;;
79798;SDS011;69283;48.024;11.090;2023-04-16T05:13:09;1.45;;;1.15;;
79798;SDS011;69283;48.024;11.090;2023-04-16T05:15:34;1.30;;;0.70;;
79798;SDS011;69283;48.024;11.090;2023-04-16T05:17:59;0.53;;;0.30;;
79798;SDS011;69283;48.024;11.090;2023-04-16T05:20:25;1.25;;;0.65;;
79798;SDS011;69283;48.024;11.090;2023-04-16T05:22:50;1.27;;;0.73;;
79798;SDS011;69283;48.024;11.090;2023-04-16T05:25:16;1.25;;;0.65;;
79798;SDS011;69283;48.024;11.090;2023-04-16T05:27:41;0.60;;;0.50;;
79798;SDS011;69283;48.024;11.090;2023-04-16T05:30:07;0.98;;;0.63;;
79798;SDS011;69283;48.024;11.090;2023-04-16T05:32:33;0.40;;;0.40;;
79798;SDS011;69283;48.024;11.090;2023-04-16T05:34:58;0.65;;;0.60;;
79798;SDS011;69283;48.024;11.090;2023-04-16T05:37:24;0.45;;;0.32;;
79798;SDS011;69283;48.024;11.090;2023-04-16T05:39:49;0.77;;;0.57;;
79798;SDS011;69283;48.024;11.090;2023-04-16T05:42:15;0.93;;;0.40;;
79798;SDS011;69283;48.024;11.090;2023-04-16T05:44:40;0.47;;;0.30;;
79798;SDS011;69283;48.024;11.090;2023-04-16T05:47:05;0.50;;;0.50;;
79798;SDS011;69283;48.024;11.090;2023-04-16T05:49:33;0.45;;;0.30;;
79798;SDS011;69283;48.024;11.090;2023-04-16T05:51:58;1.55;;;0.50;;
79798;SDS011;69283;48.024;11.090;2023-04-16T05:54:24;0.40;;;0.30;;
79798;SDS011;69283;48.024;11.090;2023-04-16T05:56:49;0.80;;;0.30;;
79798;SDS011;69283;48.024;11.090;2023-04-16T05:59:14;0.60;;;0.40;;
79798;SDS011;69283;48.024;11.090;2023-04-16T06:01:40;0.50;;;0.30;;
79798;SDS011;69283;48.024;11.090;2023-04-16T06:04:05;0.70;;;0.40;;
79798;SDS011;69283;48.024;11.090;2023-04-16T06:06:30;5.77;;;2.10;;
79798;SDS011;69283;48.024;11.090;2023-04-16T06:08:56;4.25;;;1.80;;
79798;SDS011;69283;48.024;11.090;2023-04-16T06:11:21;6.00;;;1.87;;
79798;SDS011;69283;48.024;11.090;2023-04-16T06:13:46;4.47;;;1.92;;
79798;SDS011;69283;48.024;11.090;2023-04-16T06:16:11;2.70;;;0.80;;
79798;SDS011;69283;48.024;11.090;2023-04-16T06:18:37;1.97;;;0.80;;
79798;SDS011;69283;48.024;11.090;2023-04-16T06:21:02;1.03;;;0.60;;
79798;SDS011;69283;48.024;11.090;2023-04-16T06:23:28;0.38;;;0.38;;
79798;SDS011;69283;48.024;11.090;2023-04-16T06:25:53;1.17;;;0.67;;
79798;SDS011;69283;48.024;11.090;2023-04-16T06:28:19;0.60;;;0.30;;
79798;SDS011;69283;48.024;11.090;2023-04-16T06:30:45;0.60;;;0.40;;
79798;SDS011;69283;48.024;11.090;2023-04-16T06:33:11;0.45;;;0.30;;
79798;SDS011;69283;48.024;11.090;2023-04-16T06:35:36;0.52;;;0.40;;
79798;SDS011;69283;48.024;11.090;2023-04-16T06:38:01;0.30;;;0.30;;
79798;SDS011;69283;48.024;11.090;2023-04-16T06:40:27;0.38;;;0.28;;
79798;SDS011;69283;48.024;11.090;2023-04-16T06:42:52;0.40;;;0.40;;
79798;SDS011;69283;48.024;11.090;2023-04-16T06:45:17;0.75;;;0.75;;
79798;SDS011;69283;48.024;11.090;2023-04-16T06:47:43;0.47;;;0.20;;
79798;SDS011;69283;48.024;11.090;2023-04-16T06:50:08;0.40;;;0.30;;
79798;SDS011;69283;48.024;11.090;2023-04-16T06:52:34;0.50;;;0.40;;
79798;SDS011;69283;48.024;11.090;2023-04-16T06:55:00;0.80;;;0.40;;
79798;SDS011;69283;48.024;11.090;2023-04-16T06:57:25;0.50;;;0.30;;
79798;SDS011;69283;48.024;11.090;2023-04-16T06:59:51;0.50;;;0.45;;
79798;SDS011;69283;48.024;11.090;2023-04-16T07:02:16;0.83;;;0.57;;
79798;SDS011;69283;48.024;11.090;2023-04-16T07:04:41;0.32;;;0.32;;
79798;SDS011;69283;48.024;11.090;2023-04-16T07:07:07;0.60;;;0.40;;
79798;SDS011;69283;48.024;11.090;2023-04-16T07:09:32;0.70;;;0.57;;
79798;SDS011;69283;48.024;11.090;2023-04-16T07:11:57;1.15;;;0.43;;
79798;SDS011;69283;48.024;11.090;2023-04-16T07:14:23;0.30;;;0.30;;
79798;SDS011;69283;48.024;11.090;2023-04-16T07:16:48;0.57;;;0.30;;
79798;SDS011;69283;48.024;11.090;2023-04-16T07:19:14;0.38;;;0.38;;
79798;SDS011;69283;48.024;11.090;2023-04-16T07:21:39;0.98;;;0.60;;
79798;SDS011;69283;48.024;11.090;2023-04-16T07:24:07;0.57;;;0.30;;
79798;SDS011;69283;48.024;11.090;2023-04-16T07:26:33;0.70;;;0.35;;
79798;SDS011;69283;48.024;11.090;2023-04-16T07:28:58;0.43;;;0.37;;
79798;SDS011;69283;48.024;11.090;2023-04-16T07:31:24;0.37;;;0.37;;
79798;SDS011;69283;48.024;11.090;2023-04-16T07:33:49;0.90;;;0.32;;
79798;SDS011;69283;48.024;11.090;2023-04-16T07:36:15;0.70;;;0.40;;
79798;SDS011;69283;48.024;11.090;2023-04-16T07:38:40;0.73;;;0.47;;
79798;SDS011;69283;48.024;11.090;2023-04-16T07:41:05;0.33;;;0.30;;
79798;SDS011;69283;48.024;11.090;2023-04-16T07:43:31;1.77;;;0.50;;
79798;SDS011;69283;48.024;11.090;2023-04-16T07:45:56;1.07;;;0.57;;
79798;SDS011;69283;48.024;11.090;2023-04-16T07:48:21;1.20;;;0.50;;
79798;SDS011;69283;48.024;11.090;2023-04-16T07:50:46;0.67;;;0.53;;
79798;SDS011;69283;48.024;11.090;2023-04-16T07:53:12;1.10;;;1.00;;
79798;SDS011;69283;48.024;11.090;2023-04-16T07:55:37;0.70;;;0.57;;
79798;SDS011;69283;48.024;11.090;2023-04-16T07:58:02;0.50;;;0.43;;
79798;SDS011;69283;48.024;11.090;2023-04-16T08:00:28;0.68;;;0.68;;
79798;SDS011;69283;48.024;11.090;2023-04-16T08:02:53;0.50;;;0.40;;
79798;SDS011;69283;48.024;11.090;2023-04-16T08:05:19;0.50;;;0.40;;
79798;SDS011;69283;48.024;11.090;2023-04-16T08:07:44;0.50;;;0.30;;
79798;SDS011;69283;48.024;11.090;2023-04-16T08:10:10;1.00;;;1.00;;
79798;SDS011;69283;48.024;11.090;2023-04-16T08:12:35;1.00;;;0.50;;
79798;SDS011;69283;48.024;11.090;2023-04-16T08:15:00;1.05;;;0.60;;
79798;SDS011;69283;48.024;11.090;2023-04-16T08:17:26;0.77;;;0.63;;
79798;SDS011;69283;48.024;11.090;2023-04-16T08:19:53;0.68;;;0.47;;
79798;SDS011;69283;48.024;11.090;2023-04-16T08:22:18;1.00;;;0.47;;
79798;SDS011;69283;48.024;11.090;2023-04-16T08:24:43;3.28;;;1.60;;
79798;SDS011;69283;48.024;11.090;2023-04-16T08:27:09;1.40;;;0.60;;
79798;SDS011;69283;48.024;11.090;2023-04-16T08:29:35;1.73;;;0.75;;
79798;SDS011;69283;48.024;11.090;2023-04-16T08:32:01;0.93;;;0.65;;
79798;SDS011;69283;48.024;11.090;2023-04-16T08:34:26;2.15;;;0.68;;
79798;SDS011;69283;48.024;11.090;2023-04-16T08:36:52;0.88;;;0.63;;
79798;SDS011;69283;48.024;11.090;2023-04-16T08:39:17;0.93;;;0.63;;
79798;SDS011;69283;48.024;11.090;2023-04-16T08:41:43;0.90;;;0.63;;
79798;SDS011;69283;48.024;11.090;2023-04-16T08:44:13;0.80;;;0.60;;
79798;SDS011;69283;48.024;11.090;2023-04-16T08:46:44;0.60;;;0.40;;
79798;SDS011;69283;48.024;11.090;2023-04-16T08:49:11;0.70;;;0.43;;
79798;SDS011;69283;48.024;11.090;2023-04-16T08:51:41;0.43;;;0.38;;
79798;SDS011;69283;48.024;11.090;2023-04-16T08:54:10;0.90;;;0.65;;
79798;SDS011;69283;48.024;11.090;2023-04-16T08:56:40;0.63;;;0.50;;
79798;SDS011;69283;48.024;11.090;2023-04-16T08:59:06;1.08;;;0.60;;
79798;SDS011;69283;48.024;11.090;2023-04-16T09:01:31;2.85;;;0.50;;
79798;SDS011;69283;48.024;11.090;2023-04-16T09:03:57;0.47;;;0.40;;
79798;SDS011;69283;48.024;11.090;2023-04-16T09:06:23;0.47;;;0.43;;
79798;SDS011;69283;48.024;11.090;2023-04-16T09:08:48;1.02;;;0.80;;
79798;SDS011;69283;48.024;11.090;2023-04-16T09:11:16;0.50;;;0.28;;
79798;SDS011;69283;48.024;11.090;2023-04-16T09:13:42;0.50;;;0.30;;
79798;SDS011;69283;48.024;11.090;2023-04-16T09:16:07;1.13;;;0.30;;
79798;SDS011;69283;48.024;11.090;2023-04-16T09:18:34;0.10;;;0.10;;
79798;SDS011;69283;48.024;11.090;2023-04-16T09:21:00;0.90;;;0.50;;
79798;SDS011;69283;48.024;11.090;2023-04-16T09:23:25;0.98;;;0.68;;
79798;SDS011;69283;48.024;11.090;2023-04-16T09:25:50;0.87;;;0.40;;
79798;SDS011;69283;48.024;11.090;2023-04-16T09:31:22;1.17;;;0.68;;
79798;SDS011;69283;48.024;11.090;2023-04-16T09:34:01;1.02;;;0.40;;
79798;SDS011;69283;48.024;11.090;2023-04-16T09:36:27;1.33;;;0.77;;
79798;SDS011;69283;48.024;11.090;2023-04-16T09:38:53;0.77;;;0.38;;
79798;SDS011;69283;48.024;11.090;2023-04-16T09:41:19;1.45;;;0.75;;
79798;SDS011;69283;48.024;11.090;2023-04-16T09:46:20;1.50;;;0.63;;
79798;SDS011;69283;48.024;11.090;2023-04-16T09:48:45;0.93;;;0.40;;
79798;SDS011;69283;48.024;11.090;2023-04-16T09:51:11;1.20;;;0.38;;
79798;SDS011;69283;48.024;11.090;2023-04-16T09:53:36;0.82;;;0.50;;
79798;SDS011;69283;48.024;11.090;2023-04-16T09:56:04;1.90;;;0.55;;
79798;SDS011;69283;48.024;11.090;2023-04-16T09:58:30;0.57;;;0.38;;
79798;SDS011;69283;48.024;11.090;2023-04-16T10:01:00;1.17;;;0.43;;
79798;SDS011;69283;48.024;11.090;2023-04-16T10:03:29;0.60;;;0.60;;
79798;SDS011;69283;48.024;11.090;2023-04-16T10:06:19;0.98;;;0.65;;
79798;SDS011;69283;48.024;11.090;2023-04-16T10:11:13;1.10;;;0.40;;
79798;SDS011;69283;48.024;11.090;2023-04-16T10:13:39;0.60;;;0.32;;
79798;SDS011;69283;48.024;11.090;2023-04-16T10:16:05;0.43;;;0.32;;
79798;SDS011;69283;48.024;11.090;2023-04-16T10:18:32;0.60;;;0.50;;
79798;SDS011;69283;48.024;11.090;2023-04-16T10:20:58;0.52;;;0.52;;
79798;SDS011;69283;48.024;11.090;2023-04-16T10:23:24;0.88;;;0.63;;
79798;SDS011;69283;48.024;11.090;2023-04-16T10:25:50;1.42;;;0.80;;
79798;SDS011;69283;48.024;11.090;2023-04-16T10:28:17;0.38;;;0.30;;
79798;SDS011;69283;48.024;11.090;2023-04-16T10:30:51;0.52;;;0.38;;
79798;SDS011;69283;48.024;11.090;2023-04-16T10:33:21;0.45;;;0.45;;
79798;SDS011;69283;48.024;11.090;2023-04-16T10:35:48;0.85;;;0.40;;
79798;SDS011;69283;48.024;11.090;2023-04-16T10:38:21;0.35;;;0.35;;
79798;SDS011;69283;48.024;11.090;2023-04-16T10:40:48;0.77;;;0.55;;
79798;SDS011;69283;48.024;11.090;2023-04-16T10:43:17;0.47;;;0.30;;
79798;SDS011;69283;48.024;11.090;2023-04-16T10:45:43;0.88;;;0.57;;
79798;SDS011;69283;48.024;11.090;2023-04-16T10:48:09;1.15;;;0.70;;
79798;SDS011;69283;48.024;11.090;2023-04-16T10:50:35;8.23;;;4.35;;
79798;SDS011;69283;48.024;11.090;2023-04-16T10:53:22;1.17;;;0.60;;
79798;SDS011;69283;48.024;11.090;2023-04-16T10:55:55;0.73;;;0.50;;
79798;SDS011;69283;48.024;11.090;2023-04-16T10:58:39;0.50;;;0.50;;
79798;SDS011;69283;48.024;11.090;2023-04-16T11:01:05;0.40;;;0.40;;
79798;SDS011;69283;48.024;11.090;2023-04-16T11:03:32;1.02;;;0.50;;
79798;SDS011;69283;48.024;11.090;2023-04-16T11:06:15;0.90;;;0.45;;
79798;SDS011;69283;48.024;11.090;2023-04-16T11:08:51;0.40;;;0.30;;
79798;SDS011;69283;48.024;11.090;2023-04-16T11:11:17;1.02;;;0.60;;
79798;SDS011;69283;48.024;11.090;2023-04-16T11:13:43;0.55;;;0.40;;
79798;SDS011;69283;48.024;11.090;2023-04-16T11:16:10;1.00;;;0.50;;
79798;SDS011;69283;48.024;11.090;2023-04-16T11:18:37;0.55;;;0.30;;
79798;SDS011;69283;48.024;11.090;2023-04-16T11:21:07;0.43;;;0.30;;
79798;SDS011;69283;48.024;11.090;2023-04-16T11:26:19;0.73;;;0.47;;
79798;SDS011;69283;48.024;11.090;2023-04-16T11:28:54;0.50;;;0.45;;
79798;SDS011;69283;48.024;11.090;2023-04-16T11:31:21;1.20;;;0.70;;
79798;SDS011;69283;48.024;11.090;2023-04-16T11:33:47;0.50;;;0.40;;
79798;SDS011;69283;48.024;11.090;2023-04-16T11:36:13;0.65;;;0.40;;
79798;SDS011;69283;48.024;11.090;2023-04-16T11:38:38;0.73;;;0.50;;
79798;SDS011;69283;48.024;11.090;2023-04-16T11:41:05;0.80;;;0.43;;
79798;SDS011;69283;48.024;11.090;2023-04-16T11:43:31;0.73;;;0.40;;
79798;SDS011;69283;48.024;11.090;2023-04-16T11:46:00;3.30;;;0.47;;
79798;SDS011;69283;48.024;11.090;2023-04-16T11:51:17;0.50;;;0.50;;
79798;SDS011;69283;48.024;11.090;2023-04-16T11:53:48;0.75;;;0.45;;
79798;SDS011;69283;48.024;11.090;2023-04-16T11:56:14;1.27;;;0.65;;
79798;SDS011;69283;48.024;11.090;2023-04-16T11:58:41;0.55;;;0.32;;
79798;SDS011;69283;48.024;11.090;2023-04-16T12:01:07;0.98;;;0.52;;
79798;SDS011;69283;48.024;11.090;2023-04-16T12:03:39;0.65;;;0.43;;
79798;SDS011;69283;48.024;11.090;2023-04-16T12:06:09;0.80;;;0.50;;
79798;SDS011;69283;48.024;11.090;2023-04-16T12:08:35;0.70;;;0.40;;
79798;SDS011;69283;48.024;11.090;2023-04-16T12:11:00;1.27;;;0.60;;
79798;SDS011;69283;48.024;11.090;2023-04-16T12:13:26;0.93;;;0.40;;
79798;SDS011;69283;48.024;11.090;2023-04-16T12:15:52;0.97;;;0.60;;
79798;SDS011;69283;48.024;11.090;2023-04-16T12:18:19;0.90;;;0.50;;
79798;SDS011;69283;48.024;11.090;2023-04-16T12:20:47;1.15;;;0.70;;
79798;SDS011;69283;48.024;11.090;2023-04-16T12:23:22;1.23;;;0.63;;
79798;SDS011;69283;48.024;11.090;2023-04-16T12:25:52;1.00;;;0.70;;
79798;SDS011;69283;48.024;11.090;2023-04-16T12:28:27;0.60;;;0.50;;
79798;SDS011;69283;48.024;11.090;2023-04-16T12:30:53;1.63;;;0.40;;
79798;SDS011;69283;48.024;11.090;2023-04-16T12:33:18;0.83;;;0.50;;
79798;SDS011;69283;48.024;11.090;2023-04-16T12:35:45;0.70;;;0.43;;
79798;SDS011;69283;48.024;11.090;2023-04-16T12:38:10;0.60;;;0.60;;
79798;SDS011;69283;48.024;11.090;2023-04-16T12:40:39;0.65;;;0.40;;
79798;SDS011;69283;48.024;11.090;2023-04-16T12:45:30;4.78;;;1.52;;
79798;SDS011;69283;48.024;11.090;2023-04-16T12:47:55;1.27;;;0.88;;
79798;SDS011;69283;48.024;11.090;2023-04-16T12:50:21;0.60;;;0.30;;
79798;SDS011;69283;48.024;11.090;2023-04-16T12:52:46;1.77;;;0.60;;
79798;SDS011;69283;48.024;11.090;2023-04-16T12:55:12;0.82;;;0.50;;
79798;SDS011;69283;48.024;11.090;2023-04-16T12:57:38;1.27;;;0.60;;
79798;SDS011;69283;48.024;11.090;2023-04-16T13:00:04;0.88;;;0.63;;
79798;SDS011;69283;48.024;11.090;2023-04-16T13:02:30;0.65;;;0.60;;
79798;SDS011;69283;48.024;11.090;2023-04-16T13:04:56;1.27;;;0.55;;
79798;SDS011;69283;48.024;11.090;2023-04-16T13:07:21;0.60;;;0.40;;
79798;SDS011;69283;48.024;11.090;2023-04-16T13:09:48;1.55;;;0.80;;
79798;SDS011;69283;48.024;11.090;2023-04-16T13:12:13;0.85;;;0.70;;
79798;SDS011;69283;48.024;11.090;2023-04-16T13:14:38;1.23;;;0.68;;
79798;SDS011;69283;48.024;11.090;2023-04-16T13:17:04;0.90;;;0.73;;
79798;SDS011;69283;48.024;11.090;2023-04-16T13:19:30;1.48;;;0.80;;
79798;SDS011;69283;48.024;11.090;2023-04-16T13:21:55;2.10;;;0.90;;
79798;SDS011;69283;48.024;11.090;2023-04-16T13:24:21;1.33;;;0.60;;
79798;SDS011;69283;48.024;11.090;2023-04-16T13:26:47;0.90;;;0.70;;
79798;SDS011;69283;48.024;11.090;2023-04-16T13:29:13;1.45;;;0.88;;
79798;SDS011;69283;48.024;11.090;2023-04-16T13:31:38;1.87;;;0.70;;
79798;SDS011;69283;48.024;11.090;2023-04-16T13:34:04;0.90;;;0.60;;
79798;SDS011;69283;48.024;11.090;2023-04-16T13:36:29;3.58;;;0.70;;
79798;SDS011;69283;48.024;11.090;2023-04-16T13:38:56;1.67;;;1.00;;
79798;SDS011;69283;48.024;11.090;2023-04-16T13:41:24;1.42;;;0.60;;
79798;SDS011;69283;48.024;11.090;2023-04-16T13:43:50;1.83;;;0.90;;
79798;SDS011;69283;48.024;11.090;2023-04-16T13:46:15;1.80;;;1.00;;
79798;SDS011;69283;48.024;11.090;2023-04-16T13:48:40;1.37;;;0.70;;
79798;SDS011;69283;48.024;11.090;2023-04-16T13:51:06;1.20;;;0.70;;
79798;SDS011;69283;48.024;11.090;2023-04-16T13:53:32;0.82;;;0.60;;
79798;SDS011;69283;48.024;11.090;2023-04-16T13:55:57;1.00;;;0.57;;
79798;SDS011;69283;48.024;11.090;2023-04-16T13:58:23;1.20;;;0.63;;
79798;SDS011;69283;48.024;11.090;2023-04-16T14:00:48;1.25;;;0.70;;
79798;SDS011;69283;48.024;11.090;2023-04-16T14:03:13;1.37;;;0.97;;
79798;SDS011;69283;48.024;11.090;2023-04-16T14:05:39;2.28;;;0.98;;
79798;SDS011;69283;48.024;11.090;2023-04-16T14:08:05;3.70;;;1.63;;
79798;SDS011;69283;48.024;11.090;2023-04-16T14:10:30;1.75;;;1.02;;
79798;SDS011;69283;48.024;11.090;2023-04-16T14:12:56;5.78;;;1.08;;
79798;SDS011;69283;48.024;11.090;2023-04-16T14:15:22;1.90;;;1.02;;
79798;SDS011;69283;48.024;11.090;2023-04-16T14:17:50;0.82;;;0.63;;
79798;SDS011;69283;48.024;11.090;2023-04-16T14:20:15;1.20;;;0.75;;
79798;SDS011;69283;48.024;11.090;2023-04-16T14:22:40;0.60;;;0.50;;
79798;SDS011;69283;48.024;11.090;2023-04-16T14:25:07;3.03;;;1.50;;
79798;SDS011;69283;48.024;11.090;2023-04-16T14:27:33;2.00;;;1.25;;
79798;SDS011;69283;48.024;11.090;2023-04-16T14:29:58;1.35;;;0.50;;
79798;SDS011;69283;48.024;11.090;2023-04-16T14:32:24;0.60;;;0.50;;
79798;SDS011;69283;48.024;11.090;2023-04-16T14:34:50;0.90;;;0.65;;
79798;SDS011;69283;48.024;11.090;2023-04-16T14:37:16;0.60;;;0.50;;
79798;SDS011;69283;48.024;11.090;2023-04-16T14:39:42;1.20;;;0.68;;
79798;SDS011;69283;48.024;11.090;2023-04-16T14:42:08;1.02;;;0.70;;
79798;SDS011;69283;48.024;11.090;2023-04-16T14:44:33;0.82;;;0.65;;